Time;durP1;ratioP1;P1;durP2;ratioP2;P2;SDS_P1;SDS_P2;PMS_P1;PMS_P2;Temp;Humidity;BMP_temperature;BMP_pressure;BME280_temperature;BME280_humidity;BME280_pressure;Samples;Min_cycle;Max_cycle;Signal;HPM_P1;HPM_P2
2021/09/08 00:00:51;;;;;;;20.20;18.00;;;18.30;99.90;;;;;;5061935;28;20470;-63
2021/09/08 00:03:18;;;;;;;22.87;20.50;;;18.30;99.90;;;;;;5057400;28;20467;-64
2021/09/08 00:05:44;;;;;;;23.93;18.73;;;18.20;99.90;;;;;;5061837;28;20468;-65
2021/09/08 00:08:11;;;;;;;19.87;17.80;;;18.20;99.90;;;;;;5057716;28;20790;-64
2021/09/08 00:10:38;;;;;;;20.53;18.10;;;18.20;99.90;;;;;;5052756;28;20811;-65
2021/09/08 00:13:06;;;;;;;18.50;16.70;;;18.10;99.90;;;;;;5067537;28;20485;-65
2021/09/08 00:15:33;;;;;;;18.43;16.60;;;18.10;99.90;;;;;;5054076;28;20455;-65
2021/09/08 00:18:00;;;;;;;19.97;18.00;;;18.20;99.90;;;;;;5062293;28;20484;-64
2021/09/08 00:20:27;;;;;;;18.03;16.13;;;18.20;99.90;;;;;;5052976;28;20817;-65
2021/09/08 00:22:54;;;;;;;18.50;16.60;;;18.20;99.90;;;;;;5053480;28;20471;-64
2021/09/08 00:25:21;;;;;;;19.60;17.50;;;18.20;99.90;;;;;;5059833;28;20472;-65
2021/09/08 00:27:48;;;;;;;19.10;16.87;;;18.20;99.90;;;;;;5054977;28;20494;-65
2021/09/08 00:30:16;;;;;;;19.03;17.03;;;18.10;99.90;;;;;;5066367;28;20471;-65
2021/09/08 00:32:43;;;;;;;18.93;17.03;;;18.10;99.90;;;;;;5052756;28;20548;-65
2021/09/08 00:35:11;;;;;;;17.90;16.30;;;18.10;99.90;;;;;;5052355;28;20471;-65
2021/09/08 00:37:39;;;;;;;18.03;16.20;;;18.10;99.90;;;;;;5066025;28;20472;-65
2021/09/08 00:40:07;;;;;;;19.03;17.03;;;18.10;99.90;;;;;;5052693;28;20471;-65
2021/09/08 00:42:34;;;;;;;19.33;17.43;;;18.10;99.90;;;;;;5053164;28;20460;-65
2021/09/08 00:45:01;;;;;;;19.23;17.23;;;18.10;99.90;;;;;;5065256;28;20477;-65
2021/09/08 00:47:29;;;;;;;21.00;18.67;;;18.10;99.90;;;;;;5052106;28;20477;-65
2021/09/08 00:49:56;;;;;;;22.30;19.47;;;18.00;99.90;;;;;;5053598;28;20809;-65
2021/09/08 00:52:24;;;;;;;19.63;17.63;;;18.00;99.90;;;;;;5053737;28;20475;-65
2021/09/08 00:54:51;;;;;;;17.83;16.07;;;18.00;99.90;;;;;;5057136;28;20727;-65
2021/09/08 00:57:21;;;;;;;20.00;17.30;;;18.00;99.90;;;;;;5057958;28;20926;-63
2021/09/08 00:59:49;;;;;;;17.93;16.13;;;18.00;99.90;;;;;;5052779;28;20813;-63
2021/09/08 01:02:15;;;;;;;20.97;17.20;;;18.00;99.90;;;;;;5065604;28;20466;-64
2021/09/08 01:04:44;;;;;;;17.67;15.87;;;18.00;99.90;;;;;;5051784;28;20463;-64
2021/09/08 01:07:11;;;;;;;20.13;16.93;;;18.00;99.90;;;;;;5052708;28;20467;-64
2021/09/08 01:09:38;;;;;;;18.70;16.80;;;18.00;99.90;;;;;;5051988;28;21219;-64
2021/09/08 01:12:06;;;;;;;18.60;16.73;;;17.90;99.90;;;;;;5058696;28;20474;-64
2021/09/08 01:14:33;;;;;;;23.50;19.53;;;18.00;99.90;;;;;;5052142;28;20995;-64
2021/09/08 01:16:59;;;;;;;20.73;18.63;;;18.00;99.90;;;;;;5052819;28;20975;-64
2021/09/08 01:19:27;;;;;;;21.53;18.83;;;18.00;99.90;;;;;;5060831;28;20809;-66
2021/09/08 01:21:56;;;;;;;18.67;16.77;;;18.00;99.90;;;;;;5052207;28;20490;-64
2021/09/08 01:24:24;;;;;;;19.70;17.80;;;18.00;99.90;;;;;;5051651;28;20489;-64
2021/09/08 01:26:53;;;;;;;19.13;17.10;;;18.00;99.90;;;;;;5065677;28;20551;-64
2021/09/08 01:29:20;;;;;;;18.77;16.90;;;18.00;99.90;;;;;;5065959;28;20474;-64
2021/09/08 01:31:54;;;;;;;19.37;17.30;;;18.00;99.90;;;;;;5053157;28;20683;-64
2021/09/08 01:34:21;;;;;;;16.87;15.07;;;17.90;99.90;;;;;;5051792;28;20473;-63
2021/09/08 01:36:47;;;;;;;20.40;18.20;;;18.00;99.90;;;;;;5051657;28;20470;-63
2021/09/08 01:39:18;;;;;;;19.60;17.70;;;17.90;99.90;;;;;;5064830;28;20926;-64
2021/09/08 01:41:47;;;;;;;20.20;18.10;;;17.90;99.90;;;;;;5057764;28;20466;-64
2021/09/08 01:44:18;;;;;;;21.60;19.10;;;17.90;99.90;;;;;;5052521;28;20467;-64
2021/09/08 01:46:45;;;;;;;20.03;18.13;;;17.90;99.90;;;;;;5064191;28;20817;-64
2021/09/08 01:49:11;;;;;;;18.50;16.70;;;17.90;99.90;;;;;;5065570;28;20476;-65
2021/09/08 01:51:38;;;;;;;19.50;17.50;;;17.90;99.90;;;;;;5056021;28;20493;-64
2021/09/08 01:54:05;;;;;;;22.40;19.43;;;17.80;99.90;;;;;;5061018;28;20628;-65
2021/09/08 01:56:32;;;;;;;19.97;17.47;;;17.80;99.90;;;;;;5057884;28;20979;-64
2021/09/08 01:59:00;;;;;;;21.00;17.03;;;17.80;99.90;;;;;;5062923;28;20467;-65
2021/09/08 02:01:27;;;;;;;21.53;16.97;;;17.80;99.90;;;;;;5051467;28;20473;-64
2021/09/08 02:03:54;;;;;;;18.00;16.10;;;17.80;99.90;;;;;;5060681;28;20799;-65
2021/09/08 02:06:23;;;;;;;17.30;15.50;;;17.80;99.90;;;;;;5056213;28;20475;-64
2021/09/08 02:08:51;;;;;;;18.87;16.90;;;17.80;99.90;;;;;;5051568;28;20542;-65
2021/09/08 02:11:18;;;;;;;18.80;16.90;;;17.80;99.90;;;;;;5065146;28;20474;-65
2021/09/08 02:13:44;;;;;;;22.33;19.67;;;17.70;99.90;;;;;;5051411;28;20463;-65
2021/09/08 02:16:15;;;;;;;21.40;18.90;;;17.70;99.90;;;;;;5054755;28;20549;-65
2021/09/08 02:18:42;;;;;;;20.87;18.70;;;17.70;99.90;;;;;;5060196;28;20478;-65
2021/09/08 02:21:09;;;;;;;20.13;18.10;;;17.70;99.90;;;;;;5062460;28;20807;-65
2021/09/08 02:23:36;;;;;;;19.73;17.67;;;17.70;99.90;;;;;;5063094;28;20466;-64
2021/09/08 02:26:03;;;;;;;21.70;18.87;;;17.70;99.90;;;;;;5063034;28;20470;-64
2021/09/08 02:28:30;;;;;;;20.90;18.80;;;17.70;99.90;;;;;;5063287;28;20994;-65
2021/09/08 02:30:57;;;;;;;18.73;16.73;;;17.70;99.90;;;;;;5063282;28;20458;-65
2021/09/08 02:33:26;;;;;;;18.40;16.07;;;17.60;99.90;;;;;;5062115;28;20460;-64
2021/09/08 02:35:53;;;;;;;19.10;17.30;;;17.60;99.90;;;;;;5059760;28;20553;-65
2021/09/08 02:38:20;;;;;;;17.03;15.33;;;17.60;99.90;;;;;;5053924;28;20554;-65
2021/09/08 02:40:47;;;;;;;59.50;50.20;;;17.60;99.90;;;;;;5053904;28;20458;-65
2021/09/08 02:43:14;;;;;;;27.63;24.83;;;17.60;99.90;;;;;;5055211;28;20462;-64
2021/09/08 02:45:41;;;;;;;21.60;19.43;;;17.60;99.90;;;;;;5054715;28;20477;-64
2021/09/08 02:48:08;;;;;;;23.70;18.43;;;17.60;99.90;;;;;;5055244;28;20797;-64
2021/09/08 02:50:36;;;;;;;17.00;15.20;;;17.60;99.90;;;;;;5052799;28;20459;-65
2021/09/08 02:53:03;;;;;;;30.67;27.37;;;17.60;99.90;;;;;;5053305;28;21018;-64
2021/09/08 02:55:30;;;;;;;28.87;25.77;;;17.60;99.90;;;;;;5052825;28;20505;-65
2021/09/08 02:57:57;;;;;;;19.47;17.57;;;17.60;99.90;;;;;;5053013;28;20789;-64
2021/09/08 03:00:24;;;;;;;19.00;17.07;;;17.60;99.90;;;;;;5052487;28;20459;-64
2021/09/08 03:02:50;;;;;;;19.47;17.47;;;17.60;99.90;;;;;;5052323;28;20467;-64
2021/09/08 03:05:17;;;;;;;17.30;15.50;;;17.60;99.90;;;;;;5067625;28;21062;-63
2021/09/08 03:07:45;;;;;;;18.60;16.17;;;17.60;99.90;;;;;;5073636;28;20941;-63
2021/09/08 03:10:13;;;;;;;20.40;18.23;;;17.60;99.90;;;;;;5074036;28;20870;-64
2021/09/08 03:12:39;;;;;;;19.07;17.10;;;17.60;99.90;;;;;;5073364;28;20781;-63
2021/09/08 03:15:08;;;;;;;18.93;17.13;;;17.60;99.90;;;;;;5074868;28;20541;-63
2021/09/08 03:17:35;;;;;;;20.40;18.20;;;17.60;99.90;;;;;;5074330;28;20467;-64
2021/09/08 03:20:02;;;;;;;19.03;16.80;;;17.60;99.90;;;;;;5074595;28;20463;-63
2021/09/08 03:22:29;;;;;;;18.30;16.30;;;17.50;99.90;;;;;;5074592;28;20480;-63
2021/09/08 03:24:57;;;;;;;18.70;16.80;;;17.50;99.90;;;;;;5073849;28;20953;-64
2021/09/08 03:27:24;;;;;;;20.33;18.13;;;17.50;99.90;;;;;;5074246;28;20811;-64
2021/09/08 03:29:51;;;;;;;19.27;17.10;;;17.50;99.90;;;;;;5073211;28;20484;-64
2021/09/08 03:32:17;;;;;;;19.70;17.17;;;17.50;99.90;;;;;;5073709;28;20494;-64
2021/09/08 03:34:44;;;;;;;20.03;17.50;;;17.50;99.90;;;;;;5073773;28;20546;-64
2021/09/08 03:37:11;;;;;;;19.40;17.40;;;17.50;99.90;;;;;;5074211;28;20462;-64
2021/09/08 03:39:38;;;;;;;19.20;16.27;;;17.50;99.90;;;;;;5073513;28;20541;-64
2021/09/08 03:42:06;;;;;;;16.63;14.93;;;17.50;99.90;;;;;;5074109;28;20472;-65
2021/09/08 03:44:33;;;;;;;15.80;14.20;;;17.40;99.90;;;;;;5073656;28;20465;-65
2021/09/08 03:47:00;;;;;;;18.47;16.00;;;17.40;99.90;;;;;;5073949;28;20917;-64
2021/09/08 03:49:27;;;;;;;18.33;16.57;;;17.40;99.90;;;;;;5073715;28;20477;-63
2021/09/08 03:51:54;;;;;;;16.50;14.90;;;17.40;99.90;;;;;;5073505;28;20473;-63
2021/09/08 03:54:21;;;;;;;18.23;15.57;;;17.40;99.90;;;;;;5073784;28;20484;-63
2021/09/08 03:56:48;;;;;;;19.10;16.90;;;17.40;99.90;;;;;;5073154;28;20462;-64
2021/09/08 03:59:16;;;;;;;19.77;17.77;;;17.40;99.90;;;;;;5073750;28;20474;-65
2021/09/08 04:01:44;;;;;;;17.80;16.03;;;17.40;99.90;;;;;;5073329;28;20466;-65
2021/09/08 04:04:11;;;;;;;20.70;18.50;;;17.40;99.90;;;;;;5073840;28;20462;-65
2021/09/08 04:06:38;;;;;;;19.20;17.20;;;17.40;99.90;;;;;;5073016;28;20458;-65
2021/09/08 04:09:04;;;;;;;20.13;18.13;;;17.40;99.90;;;;;;5073589;28;20952;-65
2021/09/08 04:11:31;;;;;;;19.93;17.77;;;17.40;99.90;;;;;;5073573;28;20976;-65
2021/09/08 04:13:58;;;;;;;20.40;18.23;;;17.30;99.90;;;;;;5073195;28;20465;-63
2021/09/08 04:16:26;;;;;;;18.10;15.20;;;17.30;99.90;;;;;;5073347;28;20956;-65
2021/09/08 04:18:53;;;;;;;18.23;16.37;;;17.30;99.90;;;;;;5072940;28;20978;-65
2021/09/08 04:21:20;;;;;;;18.23;16.37;;;17.30;99.90;;;;;;5073249;28;20485;-65
2021/09/08 04:23:47;;;;;;;17.47;15.87;;;17.30;99.90;;;;;;5072984;28;20477;-65
2021/09/08 04:26:14;;;;;;;18.00;16.20;;;17.30;99.90;;;;;;5073369;28;20471;-65
2021/09/08 04:28:40;;;;;;;19.00;17.20;;;17.30;99.90;;;;;;5072830;28;20983;-65
2021/09/08 04:31:07;;;;;;;20.27;17.47;;;17.30;99.90;;;;;;5072994;28;20473;-65
2021/09/08 04:33:35;;;;;;;17.63;15.83;;;17.30;99.90;;;;;;5073355;28;20484;-65
2021/09/08 04:36:02;;;;;;;20.67;18.57;;;17.30;99.90;;;;;;5072737;28;20471;-65
2021/09/08 04:38:29;;;;;;;21.00;18.17;;;17.30;99.90;;;;;;5072961;28;20565;-65
2021/09/08 04:40:56;;;;;;;22.50;16.73;;;17.30;99.90;;;;;;5072517;28;20474;-65
2021/09/08 04:43:23;;;;;;;19.07;17.03;;;17.30;99.90;;;;;;5073050;28;20978;-64
2021/09/08 04:45:50;;;;;;;19.93;17.93;;;17.30;99.90;;;;;;5072349;28;20470;-64
2021/09/08 04:48:17;;;;;;;17.97;16.27;;;17.30;99.90;;;;;;5072763;28;20472;-65
2021/09/08 04:50:45;;;;;;;19.03;17.10;;;17.30;99.90;;;;;;5072250;28;20853;-64
2021/09/08 04:53:12;;;;;;;17.80;16.10;;;17.30;99.90;;;;;;5073062;28;20462;-64
2021/09/08 04:55:39;;;;;;;20.53;18.43;;;17.30;99.90;;;;;;5072152;28;20500;-64
2021/09/08 04:58:07;;;;;;;21.13;18.90;;;17.30;99.90;;;;;;5072484;28;20470;-63
2021/09/08 05:00:34;;;;;;;25.30;18.83;;;17.30;99.90;;;;;;5071614;28;20466;-64
2021/09/08 05:03:01;;;;;;;19.23;16.23;;;17.30;99.90;;;;;;5072155;28;20465;-65
2021/09/08 05:05:28;;;;;;;18.87;16.97;;;17.30;99.90;;;;;;5072469;28;20458;-64
2021/09/08 05:07:56;;;;;;;21.67;18.60;;;17.30;99.90;;;;;;5072135;28;20476;-64
2021/09/08 05:10:23;;;;;;;20.93;18.73;;;17.40;99.90;;;;;;5072750;28;20474;-64
2021/09/08 05:12:50;;;;;;;20.70;17.43;;;17.40;99.90;;;;;;5072048;28;20474;-65
2021/09/08 05:15:17;;;;;;;22.03;17.77;;;17.40;99.90;;;;;;5072707;28;20458;-65
2021/09/08 05:17:44;;;;;;;22.23;18.77;;;17.40;99.90;;;;;;5071718;28;20824;-65
2021/09/08 05:20:11;;;;;;;18.40;16.47;;;17.40;99.90;;;;;;5072441;28;20477;-65
2021/09/08 05:22:38;;;;;;;20.00;17.43;;;17.40;99.90;;;;;;5072656;28;20470;-65
2021/09/08 05:25:08;;;;;;;33.17;27.00;;;17.40;99.90;;;;;;5071776;28;20474;-65
2021/09/08 05:27:35;;;;;;;27.10;21.47;;;17.40;99.90;;;;;;5071434;28;20464;-64
2021/09/08 05:30:01;;;;;;;22.07;19.77;;;17.50;99.90;;;;;;5071160;28;20515;-65
2021/09/08 05:32:28;;;;;;;22.80;18.47;;;17.50;99.90;;;;;;5071352;28;20995;-65
2021/09/08 05:34:56;;;;;;;19.07;17.07;;;17.50;99.90;;;;;;5071451;28;20469;-64
2021/09/08 05:37:24;;;;;;;20.07;16.47;;;17.60;99.90;;;;;;5071960;28;20496;-64
2021/09/08 05:39:51;;;;;;;19.20;17.30;;;17.60;99.90;;;;;;5071777;28;20485;-64
2021/09/08 05:42:19;;;;;;;18.97;17.10;;;17.60;99.90;;;;;;5072222;28;20472;-64
2021/09/08 05:44:46;;;;;;;19.40;16.53;;;17.60;99.90;;;;;;5072045;28;20466;-64
2021/09/08 05:47:13;;;;;;;20.50;17.93;;;17.70;99.90;;;;;;5072330;28;20466;-64
2021/09/08 05:49:39;;;;;;;21.13;17.40;;;17.70;99.90;;;;;;5072390;28;20497;-64
2021/09/08 05:52:06;;;;;;;19.27;15.30;;;17.70;99.90;;;;;;5073549;28;20472;-64
2021/09/08 05:54:33;;;;;;;17.90;16.10;;;17.80;99.90;;;;;;5076206;28;20466;-64
2021/09/08 05:57:00;;;;;;;19.10;15.13;;;17.80;99.90;;;;;;5075678;28;20489;-65
2021/09/08 05:59:28;;;;;;;17.57;14.73;;;17.80;99.90;;;;;;5075903;28;20964;-65
2021/09/08 06:01:55;;;;;;;18.97;15.17;;;17.90;99.90;;;;;;5075553;28;20472;-65
2021/09/08 06:04:22;;;;;;;19.23;16.83;;;17.90;99.90;;;;;;5076228;28;20791;-64
2021/09/08 06:06:48;;;;;;;16.37;14.77;;;17.90;99.90;;;;;;5075344;28;20466;-64
2021/09/08 06:09:15;;;;;;;17.63;15.47;;;18.00;99.90;;;;;;5075842;28;20466;-64
2021/09/08 06:11:42;;;;;;;19.10;16.30;;;18.00;99.90;;;;;;5075885;28;20462;-64
2021/09/08 06:14:12;;;;;;;20.00;16.47;;;18.00;99.90;;;;;;5075240;28;20466;-64
2021/09/08 06:16:40;;;;;;;21.27;16.40;;;18.00;99.90;;;;;;5075767;28;20469;-64
2021/09/08 06:19:07;;;;;;;21.63;16.47;;;18.10;99.90;;;;;;5075185;28;20549;-65
2021/09/08 06:21:34;;;;;;;23.20;16.00;;;18.10;99.90;;;;;;5075275;28;20470;-65
2021/09/08 06:24:01;;;;;;;22.70;16.20;;;18.20;99.90;;;;;;5075265;28;20480;-65
2021/09/08 06:26:28;;;;;;;22.30;18.07;;;18.30;99.90;;;;;;5075711;28;20953;-65
2021/09/08 06:28:55;;;;;;;23.53;18.33;;;18.30;99.90;;;;;;5075027;28;20462;-64
2021/09/08 06:31:22;;;;;;;21.13;18.67;;;18.30;99.90;;;;;;5075537;28;20470;-65
2021/09/08 06:33:50;;;;;;;26.73;19.30;;;18.40;99.90;;;;;;5075067;28;20466;-65
2021/09/08 06:36:17;;;;;;;20.40;18.13;;;18.40;99.90;;;;;;5075414;28;20971;-65
2021/09/08 06:38:44;;;;;;;20.70;16.80;;;18.50;99.90;;;;;;5075285;28;20472;-64
2021/09/08 06:41:12;;;;;;;21.93;19.63;;;18.50;99.90;;;;;;5074981;28;20454;-65
2021/09/08 06:43:39;;;;;;;21.07;16.63;;;18.50;99.90;;;;;;5075175;28;20474;-65
2021/09/08 06:46:05;;;;;;;22.90;17.80;;;18.60;99.90;;;;;;5074911;28;20462;-65
2021/09/08 06:48:32;;;;;;;26.83;17.60;;;18.60;99.90;;;;;;5075208;28;20820;-64
2021/09/08 06:51:01;;;;;;;21.03;17.20;;;18.70;99.90;;;;;;5074404;28;20466;-65
2021/09/08 06:53:28;;;;;;;20.40;16.70;;;18.70;99.90;;;;;;5075101;28;20960;-65
2021/09/08 06:55:54;;;;;;;23.60;17.73;;;18.80;99.90;;;;;;5074262;28;20480;-65
2021/09/08 06:58:21;;;;;;;23.27;17.30;;;18.80;99.90;;;;;;5074920;28;20471;-65
2021/09/08 07:00:48;;;;;;;23.73;18.20;;;18.90;99.90;;;;;;5074491;28;20476;-65
2021/09/08 07:03:15;;;;;;;26.40;18.93;;;18.90;99.90;;;;;;5074510;28;20472;-64
2021/09/08 07:05:42;;;;;;;21.00;18.70;;;18.90;99.90;;;;;;5074601;28;20466;-65
2021/09/08 07:08:11;;;;;;;20.43;17.30;;;19.00;99.90;;;;;;5074398;28;20754;-64
2021/09/08 07:10:39;;;;;;;31.13;22.83;;;19.00;99.90;;;;;;5074741;28;20494;-65
2021/09/08 07:13:05;;;;;;;33.93;26.93;;;19.10;99.90;;;;;;5074182;28;20485;-64
2021/09/08 07:15:33;;;;;;;34.30;28.50;;;19.20;99.90;;;;;;5074771;28;20814;-65
2021/09/08 07:18:01;;;;;;;30.80;27.03;;;19.20;99.90;;;;;;5074198;28;20493;-65
2021/09/08 07:20:28;;;;;;;32.70;28.97;;;19.30;99.90;;;;;;5074548;28;20778;-65
2021/09/08 07:22:55;;;;;;;36.37;32.10;;;19.30;99.90;;;;;;5074019;28;20470;-65
2021/09/08 07:25:24;;;;;;;29.30;25.93;;;19.40;99.90;;;;;;5074585;28;20466;-65
2021/09/08 07:27:50;;;;;;;31.80;26.97;;;19.40;99.90;;;;;;5073975;28;20462;-65
2021/09/08 07:30:17;;;;;;;24.67;14.43;;;19.40;99.90;;;;;;5074434;28;20469;-65
2021/09/08 07:32:44;;;;;;;22.60;18.27;;;19.50;99.90;;;;;;5074253;28;21004;-65
2021/09/08 07:35:11;;;;;;;20.60;18.20;;;19.60;99.90;;;;;;5073813;28;20480;-64
2021/09/08 07:37:38;;;;;;;17.70;16.00;;;19.70;99.90;;;;;;5074359;28;20459;-65
2021/09/08 07:40:08;;;;;;;17.33;15.50;;;19.70;99.90;;;;;;5073612;28;20489;-65
2021/09/08 07:42:36;;;;;;;20.47;18.30;;;19.80;99.90;;;;;;5056752;28;20473;-65
2021/09/08 07:45:03;;;;;;;26.10;21.03;;;19.90;99.90;;;;;;5073818;28;20485;-65
2021/09/08 07:47:29;;;;;;;19.20;16.83;;;20.00;99.90;;;;;;5074095;28;20799;-65
2021/09/08 07:49:56;;;;;;;16.73;15.03;;;20.10;99.90;;;;;;5073460;28;20488;-65
2021/09/08 07:52:23;;;;;;;23.23;19.53;;;20.10;99.90;;;;;;5073658;28;20470;-65
2021/09/08 07:54:50;;;;;;;24.10;18.27;;;20.20;99.90;;;;;;5073750;28;20957;-65
2021/09/08 07:57:17;;;;;;;22.90;19.17;;;20.30;99.90;;;;;;5073427;28;21244;-65
2021/09/08 07:59:45;;;;;;;15.60;13.17;;;20.40;99.90;;;;;;5073769;28;20470;-65
2021/09/08 08:02:12;;;;;;;13.23;11.67;;;20.40;99.90;;;;;;5073381;28;20466;-65
2021/09/08 08:04:39;;;;;;;14.70;13.23;;;20.50;99.90;;;;;;5073634;28;20462;-65
2021/09/08 08:07:05;;;;;;;11.93;10.70;;;20.50;99.90;;;;;;5073160;28;20502;-65
2021/09/08 08:09:32;;;;;;;12.97;11.30;;;20.70;99.90;;;;;;5073569;28;20467;-65
2021/09/08 08:11:59;;;;;;;13.43;12.03;;;20.70;99.90;;;;;;5073100;28;20470;-65
2021/09/08 08:14:26;;;;;;;15.60;10.90;;;20.80;99.90;;;;;;5073157;28;20474;-65
2021/09/08 08:16:54;;;;;;;12.27;11.03;;;20.90;99.90;;;;;;5073591;28;20484;-65
2021/09/08 08:19:21;;;;;;;26.50;13.20;;;21.00;99.90;;;;;;5072950;28;20459;-65
2021/09/08 08:21:48;;;;;;;17.70;12.63;;;21.00;99.90;;;;;;5073119;28;20463;-65
2021/09/08 08:24:15;;;;;;;15.80;11.87;;;21.10;99.90;;;;;;5072849;28;20467;-65
2021/09/08 08:26:42;;;;;;;13.63;11.63;;;21.10;98.80;;;;;;5073209;28;20542;-65
2021/09/08 08:29:09;;;;;;;12.40;11.13;;;21.20;98.90;;;;;;5072561;28;20466;-65
2021/09/08 08:31:41;;;;;;;14.27;12.37;;;21.30;98.90;;;;;;5073246;28;20472;-65
2021/09/08 08:34:10;;;;;;;12.33;11.13;;;21.40;99.10;;;;;;5072698;28;20466;-65
2021/09/08 08:36:37;;;;;;;17.17;12.37;;;21.40;98.90;;;;;;5073060;28;20476;-65
2021/09/08 08:39:04;;;;;;;16.27;11.53;;;21.50;99.50;;;;;;5072544;28;20998;-65
2021/09/08 08:41:31;;;;;;;17.40;11.70;;;21.60;99.20;;;;;;5072953;28;20474;-65
2021/09/08 08:43:58;;;;;;;17.13;12.03;;;21.60;99.20;;;;;;5072496;28;20458;-65
2021/09/08 08:46:25;;;;;;;17.60;12.20;;;21.70;99.30;;;;;;5072994;28;20468;-65
2021/09/08 08:48:52;;;;;;;15.77;11.80;;;21.70;99.30;;;;;;5072816;28;20477;-65
2021/09/08 08:51:20;;;;;;;13.37;12.00;;;21.80;99.30;;;;;;5072344;28;20475;-65
2021/09/08 08:53:49;;;;;;;15.30;13.77;;;21.90;99.60;;;;;;5072982;28;20473;-65
2021/09/08 08:56:16;;;;;;;16.63;13.83;;;21.90;99.90;;;;;;5072248;28;21137;-65
2021/09/08 08:58:43;;;;;;;16.03;13.27;;;21.90;99.90;;;;;;5072856;28;20471;-65
2021/09/08 09:01:17;;;;;;;14.27;12.87;;;22.00;99.90;;;;;;5072480;28;20472;-66
2021/09/08 09:03:59;;;;;;;14.13;11.80;;;22.00;99.90;;;;;;5072745;28;20491;-65
2021/09/08 09:06:27;;;;;;;13.00;11.67;;;22.00;99.80;;;;;;5072406;28;20595;-65
2021/09/08 09:09:06;;;;;;;14.20;9.70;;;22.00;99.80;;;;;;5072563;28;20486;-65
2021/09/08 09:11:34;;;;;;;10.90;9.53;;;22.10;98.80;;;;;;5072581;28;20454;-65
2021/09/08 09:14:03;;;;;;;13.83;12.43;;;22.10;98.50;;;;;;5072780;28;20477;-65
2021/09/08 09:16:30;;;;;;;12.43;11.23;;;22.20;98.50;;;;;;5072203;28;20462;-65
2021/09/08 09:18:57;;;;;;;13.30;11.90;;;22.20;98.30;;;;;;5072574;28;20520;-65
2021/09/08 09:21:26;;;;;;;14.00;12.10;;;22.30;98.70;;;;;;5071966;28;20470;-65
2021/09/08 09:23:56;;;;;;;13.70;12.30;;;22.30;99.10;;;;;;5072556;28;21002;-65
2021/09/08 09:26:25;;;;;;;11.37;9.50;;;22.40;99.40;;;;;;5072825;28;20482;-65
2021/09/08 09:28:53;;;;;;;14.73;12.27;;;22.40;98.30;;;;;;5076592;28;20541;-65
2021/09/08 09:31:22;;;;;;;12.20;11.10;;;22.40;98.40;;;;;;5076009;28;20461;-65
2021/09/08 09:33:57;;;;;;;15.87;14.13;;;22.50;98.00;;;;;;5076635;28;20466;-65
2021/09/08 09:36:26;;;;;;;14.87;13.33;;;22.50;98.50;;;;;;5076038;28;20462;-65
2021/09/08 09:38:55;;;;;;;15.10;11.43;;;22.60;98.80;;;;;;5076554;28;20481;-65
2021/09/08 09:41:30;;;;;;;11.23;9.47;;;22.50;97.30;;;;;;5075891;28;20463;-65
2021/09/08 09:43:57;;;;;;;12.90;11.00;;;22.60;97.30;;;;;;5076729;28;20833;-65
2021/09/08 09:46:27;;;;;;;11.17;10.17;;;22.70;97.70;;;;;;5076042;28;20462;-65
2021/09/08 09:48:54;;;;;;;12.40;11.00;;;22.70;97.60;;;;;;5076230;28;20992;-65
2021/09/08 09:51:21;;;;;;;10.40;9.40;;;22.80;97.40;;;;;;5075758;28;20476;-65
2021/09/08 09:53:47;;;;;;;10.63;9.63;;;22.80;96.80;;;;;;5076086;28;20472;-65
2021/09/08 09:56:16;;;;;;;11.40;10.27;;;22.90;96.20;;;;;;5075658;28;20462;-65
2021/09/08 09:58:42;;;;;;;10.83;9.83;;;23.00;96.20;;;;;;5076109;28;20968;-66
2021/09/08 10:01:09;;;;;;;13.27;11.97;;;23.00;95.90;;;;;;5076032;28;20458;-64
2021/09/08 10:03:36;;;;;;;14.77;13.37;;;23.10;96.00;;;;;;5075511;28;20461;-64
2021/09/08 10:06:03;;;;;;;13.67;12.37;;;23.10;96.50;;;;;;5076054;28;20785;-64
2021/09/08 10:08:35;;;;;;;13.43;12.13;;;23.20;97.00;;;;;;5075321;28;20548;-64
2021/09/08 10:11:06;;;;;;;16.23;13.70;;;23.20;96.90;;;;;;5075824;28;20462;-64
2021/09/08 10:13:41;;;;;;;14.73;13.33;;;23.20;96.80;;;;;;5075616;28;20892;-64
2021/09/08 10:16:09;;;;;;;11.60;10.43;;;23.20;96.90;;;;;;5075949;28;20461;-64
2021/09/08 10:18:36;;;;;;;13.67;12.00;;;23.20;96.40;;;;;;5075139;28;20480;-64
2021/09/08 10:21:05;;;;;;;11.33;10.17;;;23.30;96.10;;;;;;5075580;28;21019;-64
2021/09/08 10:23:35;;;;;;;12.10;10.97;;;23.30;95.70;;;;;;5075360;28;20462;-64
2021/09/08 10:26:11;;;;;;;11.83;10.73;;;23.30;96.10;;;;;;5075605;28;21140;-64
2021/09/08 10:28:41;;;;;;;12.80;11.60;;;23.30;95.60;;;;;;5074912;28;20461;-64
2021/09/08 10:31:10;;;;;;;10.40;9.50;;;23.40;95.70;;;;;;5075475;28;20462;-64
2021/09/08 10:33:38;;;;;;;11.50;10.50;;;23.50;95.80;;;;;;5075078;28;20538;-64
2021/09/08 10:36:05;;;;;;;11.23;10.17;;;23.50;95.90;;;;;;5075452;28;20476;-64
2021/09/08 10:38:33;;;;;;;13.47;11.83;;;23.50;96.20;;;;;;5074649;28;20470;-64
2021/09/08 10:41:04;;;;;;;11.43;10.30;;;23.50;96.10;;;;;;5075177;28;20462;-64
2021/09/08 10:43:32;;;;;;;10.97;9.90;;;23.60;96.30;;;;;;5074940;28;20470;-64
2021/09/08 10:46:02;;;;;;;11.33;10.10;;;23.60;95.20;;;;;;5075443;28;20515;-64
2021/09/08 10:48:37;;;;;;;11.10;10.00;;;23.70;95.30;;;;;;5074622;28;20496;-64
2021/09/08 10:51:04;;;;;;;11.90;10.73;;;23.70;95.10;;;;;;5075003;28;21101;-64
2021/09/08 10:53:34;;;;;;;11.60;10.50;;;23.70;95.30;;;;;;5074781;28;20472;-64
2021/09/08 10:56:02;;;;;;;10.53;9.63;;;23.80;95.10;;;;;;5075093;28;20869;-64
2021/09/08 10:58:54;;;;;;;9.20;8.30;;;23.80;94.80;;;;;;5074624;28;20481;-64
2021/09/08 11:01:23;;;;;;;10.80;9.80;;;23.80;94.40;;;;;;5074406;28;20458;-64
2021/09/08 11:03:50;;;;;;;12.60;10.90;;;23.90;94.10;;;;;;5075206;28;20473;-64
2021/09/08 11:06:18;;;;;;;11.17;10.20;;;23.90;94.40;;;;;;5074468;28;20466;-64
2021/09/08 11:08:45;;;;;;;10.87;9.87;;;23.90;94.20;;;;;;5074782;28;20463;-64
2021/09/08 11:11:16;;;;;;;11.37;10.37;;;23.90;94.20;;;;;;5074794;28;20466;-64
2021/09/08 11:13:43;;;;;;;10.50;9.60;;;23.90;94.30;;;;;;5074656;28;21221;-64
2021/09/08 11:16:19;;;;;;;11.57;10.53;;;24.00;94.30;;;;;;5074712;28;20469;-64
2021/09/08 11:18:47;;;;;;;12.40;11.20;;;24.00;94.40;;;;;;5074360;28;20466;-64
2021/09/08 11:21:16;;;;;;;12.80;10.60;;;24.00;94.30;;;;;;5074372;28;20455;-65
2021/09/08 11:23:43;;;;;;;11.60;10.50;;;24.10;94.20;;;;;;5074262;28;20928;-64
2021/09/08 11:26:12;;;;;;;13.63;11.30;;;24.10;94.30;;;;;;5074444;28;20537;-64
2021/09/08 11:28:40;;;;;;;13.70;12.50;;;24.10;94.00;;;;;;5073833;28;20475;-64
2021/09/08 11:31:13;;;;;;;11.40;10.47;;;24.10;94.00;;;;;;5074237;28;20470;-64
2021/09/08 11:33:40;;;;;;;9.73;8.73;;;24.20;94.10;;;;;;5073970;28;20480;-65
2021/09/08 11:36:17;;;;;;;10.80;9.77;;;24.10;93.50;;;;;;5074332;28;20819;-64
2021/09/08 11:38:52;;;;;;;11.37;8.63;;;24.10;93.50;;;;;;5073915;28;20472;-65
2021/09/08 11:41:19;;;;;;;12.17;9.90;;;24.20;93.10;;;;;;5074188;28;20461;-65
2021/09/08 11:43:49;;;;;;;9.67;8.70;;;24.20;93.20;;;;;;5073655;28;20462;-65
2021/09/08 11:46:20;;;;;;;9.83;9.03;;;24.20;92.70;;;;;;5074151;28;20984;-65
2021/09/08 11:48:48;;;;;;;10.53;9.63;;;24.20;93.00;;;;;;5072829;28;20466;-65
2021/09/08 11:51:18;;;;;;;9.47;8.47;;;24.30;93.30;;;;;;5073747;28;20462;-65
2021/09/08 11:53:45;;;;;;;13.57;9.80;;;24.30;93.10;;;;;;5073544;28;20468;-64
2021/09/08 11:56:14;;;;;;;11.47;10.40;;;24.30;93.20;;;;;;5073878;28;20472;-65
2021/09/08 11:58:42;;;;;;;11.37;10.37;;;24.40;93.40;;;;;;5073204;28;20481;-65
2021/09/08 12:01:11;;;;;;;10.87;9.87;;;24.40;93.60;;;;;;5073615;28;20998;-65
2021/09/08 12:03:40;;;;;;;11.30;10.30;;;24.40;93.50;;;;;;5072887;28;20466;-65
2021/09/08 12:06:13;;;;;;;11.83;10.63;;;24.40;93.70;;;;;;5073501;28;20466;-65
2021/09/08 12:08:55;;;;;;;11.23;10.10;;;24.50;93.50;;;;;;5073095;28;20470;-65
2021/09/08 12:11:37;;;;;;;10.10;9.07;;;24.50;93.00;;;;;;5073473;28;20971;-65
2021/09/08 12:14:23;;;;;;;10.40;9.40;;;24.60;92.40;;;;;;5073974;28;20839;-66
2021/09/08 12:16:52;;;;;;;8.97;8.17;;;24.60;92.10;;;;;;5073569;28;20851;-65
2021/09/08 12:19:21;;;;;;;9.50;8.60;;;24.60;92.20;;;;;;5073665;28;20480;-65
2021/09/08 12:21:48;;;;;;;11.23;10.20;;;24.60;92.20;;;;;;5072901;28;20477;-64
2021/09/08 12:24:26;;;;;;;11.07;9.97;;;24.60;92.70;;;;;;5073263;28;20466;-65
2021/09/08 12:26:54;;;;;;;10.80;9.90;;;24.60;92.50;;;;;;5072754;28;20538;-65
2021/09/08 12:29:27;;;;;;;11.90;11.00;;;24.50;92.80;;;;;;5073156;28;20968;-65
2021/09/08 12:31:57;;;;;;;12.00;10.93;;;24.50;92.40;;;;;;5072458;28;20513;-64